createdAt,value
2019-03-15T00:01:10.797Z,4.60
2019-03-15T00:06:14.873Z,5.40
2019-03-15T00:11:18.918Z,7.40
2019-03-15T00:16:22.644Z,6.07
2019-03-15T00:21:26.325Z,11.23
2019-03-15T00:26:30.075Z,6.40
2019-03-15T00:31:34.114Z,4.17
2019-03-15T00:36:38.434Z,5.67
2019-03-15T00:41:42.362Z,9.20
2019-03-15T00:46:46.058Z,5.73
2019-03-15T00:51:50.006Z,3.37
2019-03-15T00:56:53.660Z,5.57
2019-03-15T01:01:57.698Z,5.40
2019-03-15T01:07:01.832Z,5.20
2019-03-15T01:12:05.493Z,4.23
2019-03-15T01:17:09.157Z,7.27
2019-03-15T01:22:12.811Z,7.53
2019-03-15T01:27:16.449Z,6.70
2019-03-15T01:32:20.464Z,9.10
2019-03-15T01:37:24.605Z,6.90
2019-03-15T01:42:28.267Z,6.03
2019-03-15T01:47:31.913Z,6.17
2019-03-15T01:52:35.582Z,9.30
2019-03-15T01:57:39.246Z,5.37
2019-03-15T02:02:42.918Z,8.03
2019-03-15T02:07:46.647Z,2.70
2019-03-15T02:12:50.595Z,6.17
2019-03-15T02:17:54.239Z,9.97
2019-03-15T02:22:58.380Z,5.87
2019-03-15T02:28:02.227Z,7.27
2019-03-15T02:33:06.167Z,7.10
2019-03-15T02:38:10.207Z,6.97
2019-03-15T02:43:13.873Z,6.07
2019-03-15T02:48:17.518Z,5.90
2019-03-15T02:53:21.173Z,10.10
2019-03-15T02:58:24.850Z,5.30
2019-03-15T03:03:28.501Z,5.83
2019-03-15T03:08:32.164Z,10.33
2019-03-15T03:13:36.703Z,5.10
2019-03-15T03:18:40.937Z,6.87
2019-03-15T03:23:44.592Z,4.90
2019-03-15T03:28:48.280Z,6.23
2019-03-15T03:33:51.937Z,7.10
2019-03-15T03:38:55.582Z,5.90
2019-03-15T03:43:59.225Z,6.13
2019-03-15T03:49:02.865Z,7.50
2019-03-15T03:54:06.511Z,6.50
2019-03-15T03:59:10.474Z,9.10
2019-03-15T04:04:14.464Z,5.07
2019-03-15T04:09:18.192Z,8.63
2019-03-15T04:14:22.115Z,7.20
2019-03-15T04:19:25.767Z,4.93
2019-03-15T04:24:29.504Z,6.17
2019-03-15T04:29:33.210Z,12.87
2019-03-15T04:34:37.140Z,7.50
2019-03-15T04:39:41.287Z,10.77
2019-03-15T04:44:45.165Z,5.03
2019-03-15T04:49:48.819Z,6.87
2019-03-15T04:54:52.545Z,9.57
2019-03-15T04:59:56.190Z,7.67
2019-03-15T05:05:00.415Z,4.00
2019-03-15T05:10:05.050Z,9.43
2019-03-15T05:15:09.785Z,6.87
2019-03-15T05:20:13.499Z,5.63
2019-03-15T05:25:17.177Z,5.40
2019-03-15T05:30:20.825Z,7.10
2019-03-15T05:35:24.857Z,7.23
2019-03-15T05:40:28.505Z,7.63
2019-03-15T05:45:32.449Z,12.67
2019-03-15T05:50:36.401Z,7.63
2019-03-15T05:55:40.062Z,7.37
2019-03-15T06:00:43.717Z,9.13
2019-03-15T06:05:47.378Z,4.23
2019-03-15T06:10:51.056Z,8.93
2019-03-15T06:15:54.742Z,7.03
2019-03-15T06:20:58.394Z,8.50
2019-03-15T06:26:02.034Z,9.43
2019-03-15T06:31:05.722Z,10.37
2019-03-15T06:36:09.654Z,4.93
2019-03-15T06:41:14.874Z,9.40
2019-03-15T06:46:18.557Z,10.67
2019-03-15T06:51:22.517Z,9.27
2019-03-15T06:56:26.569Z,5.80
2019-03-15T07:01:30.222Z,9.23
2019-03-15T07:06:34.343Z,6.00
2019-03-15T07:11:38.060Z,8.77
2019-03-15T07:16:41.836Z,9.23
2019-03-15T07:21:47.032Z,11.23
2019-03-15T07:26:50.827Z,9.47
2019-03-15T07:31:54.534Z,11.33
2019-03-15T07:36:58.474Z,8.30
2019-03-15T07:42:02.536Z,10.50
2019-03-15T07:47:06.233Z,10.43
2019-03-15T07:52:10.031Z,11.27
2019-03-15T07:57:13.717Z,10.63
2019-03-15T08:02:17.425Z,11.00
2019-03-15T08:07:21.114Z,9.20
2019-03-15T08:12:25.145Z,9.47
2019-03-15T08:17:29.129Z,15.90
2019-03-15T08:22:32.927Z,8.73
2019-03-15T08:27:37.030Z,10.27
2019-03-15T08:32:43.321Z,10.27
2019-03-15T08:37:46.142Z,5.83
2019-03-15T08:42:49.890Z,10.10
2019-03-15T08:47:53.644Z,6.93
2019-03-15T08:52:57.367Z,10.60
2019-03-15T08:58:13.463Z,10.93
2019-03-15T09:03:06.504Z,12.47
2019-03-15T09:08:10.205Z,12.60
2019-03-15T09:13:14.586Z,5.93
2019-03-15T09:18:18.412Z,9.10
2019-03-15T09:23:22.177Z,5.00
2019-03-15T09:28:25.907Z,14.37
2019-03-15T09:33:29.651Z,10.83
2019-03-15T09:38:33.349Z,16.80
2019-03-15T09:43:37.102Z,12.70
2019-03-15T09:48:43.669Z,11.43
2019-03-15T09:53:46.213Z,12.70
2019-03-15T09:58:50.196Z,9.37
2019-03-15T10:03:53.931Z,10.83
2019-03-15T10:08:57.649Z,7.83
2019-03-15T10:14:02.362Z,8.13
2019-03-15T10:19:06.496Z,10.97
2019-03-15T10:24:10.733Z,11.63
2019-03-15T10:29:15.916Z,8.43
2019-03-15T10:34:19.825Z,12.97
2019-03-15T10:39:23.493Z,9.40
2019-03-15T10:44:27.197Z,7.27
2019-03-15T10:49:31.087Z,10.07
2019-03-15T10:54:35.131Z,7.57
2019-03-15T10:59:38.892Z,9.90
2019-03-15T11:04:42.860Z,9.60
2019-03-15T11:09:46.557Z,7.03
2019-03-15T11:14:50.331Z,11.13
2019-03-15T11:19:53.985Z,9.07
2019-03-15T11:24:57.718Z,6.67
2019-03-15T11:30:01.415Z,6.50
2019-03-15T11:35:06.163Z,7.57
2019-03-15T11:40:10.274Z,7.17
2019-03-15T11:45:14.080Z,10.93
2019-03-15T11:50:18.019Z,5.80
2019-03-15T11:55:22.008Z,7.87
2019-03-15T12:00:25.890Z,8.83
2019-03-15T12:05:29.680Z,6.03
2019-03-15T12:10:33.682Z,4.17
2019-03-15T12:15:37.698Z,6.27
2019-03-15T12:20:41.394Z,8.50
2019-03-15T12:25:45.093Z,3.40
2019-03-15T12:30:49.134Z,5.07
2019-03-15T12:35:53.061Z,3.57
2019-03-15T12:40:57.034Z,2.90
2019-03-15T12:46:00.792Z,6.03
2019-03-15T12:51:04.556Z,3.23
2019-03-15T12:56:11.086Z,5.23
2019-03-15T13:01:14.022Z,11.07
2019-03-15T13:06:18.186Z,4.30
2019-03-15T13:11:22.121Z,1.77
2019-03-15T13:16:25.810Z,1.50
2019-03-15T13:21:29.460Z,3.57
2019-03-15T13:26:33.461Z,6.17
2019-03-15T13:31:37.111Z,1.20
2019-03-15T13:36:41.210Z,1.50
2019-03-15T13:41:44.859Z,1.10
2019-03-15T13:46:48.523Z,1.10
2019-03-15T13:51:58.197Z,0.90
2019-03-15T13:57:01.857Z,3.57
2019-03-15T14:02:07.680Z,1.30
2019-03-15T14:07:11.021Z,1.27
2019-03-15T14:12:14.774Z,4.03
2019-03-15T14:17:18.482Z,1.60
2019-03-15T14:22:22.241Z,1.40
2019-03-15T14:27:36.887Z,1.47
2019-03-15T14:32:31.995Z,3.43
2019-03-15T14:37:35.942Z,2.20
2019-03-15T14:42:40.323Z,1.23
2019-03-15T14:47:44.075Z,4.20
2019-03-15T14:52:47.826Z,1.87
2019-03-15T14:57:53.228Z,1.40
2019-03-15T15:02:57.176Z,0.90
2019-03-15T15:08:01.130Z,1.93
2019-03-15T15:13:05.519Z,0.60
2019-03-15T15:18:09.166Z,1.53
2019-03-15T15:23:12.908Z,1.07
2019-03-15T15:28:16.553Z,0.80
2019-03-15T15:33:20.506Z,0.77
2019-03-15T15:38:24.171Z,2.83
2019-03-15T15:43:27.844Z,0.60
2019-03-15T15:48:31.533Z,1.33
2019-03-15T15:53:35.257Z,2.33
2019-03-15T15:58:38.969Z,1.10
2019-03-15T16:03:42.905Z,0.63
2019-03-15T16:08:46.574Z,1.03
2019-03-15T16:13:50.222Z,2.47
2019-03-15T16:18:54.384Z,1.43
2019-03-15T16:23:58.245Z,1.03
2019-03-15T16:29:01.894Z,0.87
2019-03-15T16:34:05.591Z,1.33
2019-03-15T16:39:09.256Z,3.13
2019-03-15T16:44:12.961Z,1.80
2019-03-15T16:49:17.021Z,0.50
2019-03-15T16:54:20.957Z,0.60
2019-03-15T16:59:24.623Z,0.73
2019-03-15T17:04:28.369Z,4.43
2019-03-15T17:09:32.102Z,0.50
2019-03-15T17:14:36.009Z,0.77
2019-03-15T17:19:39.678Z,1.37
2019-03-15T17:24:43.347Z,0.90
2019-03-15T17:29:47.023Z,1.40
2019-03-15T17:34:51.106Z,1.10
2019-03-15T17:39:57.803Z,0.60
2019-03-15T17:45:01.802Z,1.00
2019-03-15T17:50:06.741Z,0.60
2019-03-15T17:55:18.408Z,2.07
2019-03-15T18:00:31.311Z,1.10
2019-03-15T18:05:35.314Z,1.20
2019-03-15T18:10:39.051Z,0.80
2019-03-15T18:15:42.974Z,1.87
2019-03-15T18:20:46.814Z,0.87
2019-03-15T18:25:50.487Z,2.10
2019-03-15T18:30:54.154Z,1.17
2019-03-15T18:35:57.856Z,5.13
2019-03-15T18:41:01.916Z,2.20
2019-03-15T18:46:05.909Z,3.40
2019-03-15T18:51:09.685Z,3.30
2019-03-15T18:56:13.345Z,2.97
2019-03-15T19:01:17.005Z,3.93
2019-03-15T19:06:20.724Z,5.10
2019-03-15T19:11:24.386Z,7.03
2019-03-15T19:16:28.138Z,5.67
2019-03-15T19:21:32.082Z,4.10
2019-03-15T19:26:36.538Z,4.70
2019-03-15T19:31:40.209Z,5.47
2019-03-15T19:36:44.293Z,4.00
2019-03-15T19:41:48.394Z,6.00
2019-03-15T19:46:52.148Z,6.93
2019-03-15T19:51:56.159Z,5.10
2019-03-15T19:56:59.803Z,6.03
2019-03-15T20:02:03.846Z,5.77
2019-03-15T20:07:07.529Z,4.73
2019-03-15T20:12:11.201Z,3.77
2019-03-15T20:17:15.069Z,4.03
2019-03-15T20:22:21.133Z,4.30
2019-03-15T20:27:24.465Z,2.83
2019-03-15T20:32:28.217Z,4.37
2019-03-15T20:37:31.910Z,3.50
2019-03-15T20:42:35.634Z,5.37
2019-03-15T20:47:39.369Z,6.57
2019-03-15T20:52:43.297Z,7.27
2019-03-15T20:57:47.161Z,5.43
2019-03-15T21:02:51.159Z,4.53
2019-03-15T21:07:54.809Z,7.43
2019-03-15T21:12:58.681Z,5.33
2019-03-15T21:18:02.432Z,3.80
2019-03-15T21:23:06.189Z,3.77
2019-03-15T21:28:09.833Z,3.27
2019-03-15T21:33:13.704Z,3.30
2019-03-15T21:38:17.422Z,5.77
2019-03-15T21:43:21.073Z,7.37
2019-03-15T21:48:24.741Z,5.00
2019-03-15T21:53:28.690Z,4.83
2019-03-15T21:58:32.417Z,4.30
2019-03-15T22:03:36.459Z,5.40
2019-03-15T22:08:40.153Z,3.60
2019-03-15T22:13:44.061Z,3.83
2019-03-15T22:18:47.987Z,7.03
2019-03-15T22:23:51.653Z,5.00
2019-03-15T22:28:55.304Z,7.20
2019-03-15T22:33:58.997Z,6.73
2019-03-15T22:39:02.663Z,6.43
2019-03-15T22:44:06.325Z,6.17
2019-03-15T22:49:09.978Z,7.97
2019-03-15T22:54:13.653Z,4.13
2019-03-15T22:59:17.608Z,7.67
2019-03-15T23:04:21.274Z,6.10
2019-03-15T23:09:24.970Z,8.60
2019-03-15T23:14:28.668Z,4.93
2019-03-15T23:19:32.361Z,6.23
2019-03-15T23:24:36.030Z,6.30
2019-03-15T23:29:39.676Z,5.63
2019-03-15T23:34:43.574Z,6.90
2019-03-15T23:39:47.238Z,3.93
2019-03-15T23:44:50.909Z,8.20
2019-03-15T23:49:54.815Z,4.83
2019-03-15T23:54:58.477Z,3.80
